Time;durP1;ratioP1;P1;durP2;ratioP2;P2;SDS_P1;SDS_P2;PMS_P1;PMS_P2;Temp;Humidity;BMP_temperature;BMP_pressure;BME280_temperature;BME280_humidity;BME280_pressure;Samples;Min_cycle;Max_cycle;Signal;HPM_P1;HPM_P2
2023/07/17 04:44:01;;;;;;;;;;;;;;;20.10;65.83;100113.88;1082487;54;19942;-85
2023/07/17 04:45:19;;;;;;;;;;;;;;;20.16;65.82;100112.22;1088259;47;19927;-85
2023/07/17 05:04:42;;;;;;;;;;;;;;;19.99;67.48;100119.03;1078183;54;19947;-84
2023/07/17 06:02:31;;;;;;;;;;;;;;;20.95;62.18;100147.75;1087247;54;19954;-85
2023/07/17 06:03:35;;;;;;;;;;;;;;;20.98;62.13;100139.16;1086957;47;20589;-85
2023/07/17 06:04:40;;;;;;;;;;;;;;;20.92;61.63;100150.06;1086996;54;19977;-85
2023/07/17 06:05:40;;;;;;;;;;;;;;;21.01;61.42;100149.63;1087343;54;19942;-85
2023/07/17 06:06:44;;;;;;;;;;;;;;;21.06;60.52;100143.53;1087267;54;19942;-84
2023/07/17 06:07:45;;;;;;;;;;;;;;;21.12;60.23;100148.13;1087368;54;19943;-85
2023/07/17 06:08:46;;;;;;;;;;;;;;;21.14;59.76;100150.66;1090329;39;20221;-85
2023/07/17 06:09:56;;;;;;;;;;;;;;;21.18;59.74;100146.44;1087540;54;19950;-85
2023/07/17 06:11:02;;;;;;;;;;;;;;;21.31;59.41;100156.44;1087810;47;19958;-86
2023/07/17 06:12:11;;;;;;;;;;;;;;;21.39;59.31;100152.66;1087477;47;19938;-87
2023/07/17 06:13:16;;;;;;;;;;;;;;;21.42;58.82;100152.25;1087503;47;19939;-87
2023/07/17 06:14:21;;;;;;;;;;;;;;;21.50;58.83;100155.56;1087049;54;19949;-87
2023/07/17 06:15:22;;;;;;;;;;;;;;;21.59;58.70;100158.06;1087473;54;19942;-87
2023/07/17 06:16:28;;;;;;;;;;;;;;;21.55;58.38;100163.06;1087109;47;19973;-86
2023/07/17 06:17:32;;;;;;;;;;;;;;;21.51;58.26;100156.41;1087900;54;19943;-87
2023/07/17 06:18:35;;;;;;;;;;;;;;;21.57;58.14;100155.53;1088462;47;19949;-88
2023/07/17 06:19:36;;;;;;;;;;;;;;;21.59;58.00;100152.63;1087707;47;19942;-85
2023/07/17 06:20:37;;;;;;;;;;;;;;;21.66;57.85;100154.28;1087586;47;19939;-86
2023/07/17 06:21:40;;;;;;;;;;;;;;;21.64;57.63;100156.38;1087638;47;19943;-86
2023/07/17 08:55:25;;;;;;;;;;;;;;;27.53;31.37;100154.72;1087588;54;19931;-86
2023/07/17 08:56:52;;;;;;;;;;;;;;;27.41;31.27;100148.47;1086168;46;19942;31
2023/07/17 08:58:00;;;;;;;;;;;;;;;27.40;30.70;100142.16;1086853;47;19930;-85
2023/07/17 08:59:03;;;;;;;;;;;;;;;27.61;31.07;100147.94;1087723;54;19965;-85
2023/07/17 09:00:15;;;;;;;;;;;;;;;27.73;31.20;100156.03;1087370;47;19962;-89
2023/07/17 09:02:23;;;;;;;;;;;;;;;27.95;31.26;100150.53;1082474;54;20788;31
2023/07/17 09:04:05;;;;;;;;;;;;;;;27.85;30.94;100151.25;1087635;46;19942;-88
2023/07/17 09:05:23;;;;;;;;;;;;;;;27.84;30.90;100166.06;1087576;47;19939;-87
2023/07/17 09:12:15;;;;;;;;;;;;;;;27.20;30.98;100156.47;1087133;47;19939;-85
2023/07/17 09:13:16;;;;;;;;;;;;;;;27.03;31.71;100161.13;1087530;54;19980;-86
2023/07/17 09:14:22;;;;;;;;;;;;;;;27.45;31.46;100152.41;1087010;47;19965;-83
2023/07/17 09:15:23;;;;;;;;;;;;;;;27.09;31.74;100149.97;1087096;47;19949;-84
2023/07/17 09:16:27;;;;;;;;;;;;;;;27.36;31.44;100156.66;1087017;47;19950;-84
2023/07/17 09:17:28;;;;;;;;;;;;;;;27.38;31.88;100149.81;1086974;47;19938;-86
2023/07/17 09:19:36;;;;;;;;;;;;;;;27.63;32.04;100159.47;1087724;54;19935;-87
2023/07/17 09:20:36;;;;;;;;;;;;;;;27.44;31.79;100155.44;1087843;54;19973;-84
2023/07/17 09:21:43;;;;;;;;;;;;;;;27.64;31.60;100150.16;1087134;47;19939;-85
2023/07/17 09:25:09;;;;;;;;;;;;;;;28.08;31.29;100143.00;1088418;54;19926;-86
2023/07/17 09:27:23;;;;;;;;;;;;;;;28.07;31.47;100147.66;1086508;54;19926;-85
2023/07/17 09:28:39;;;;;;;;;;;;;;;28.05;31.13;100143.47;1087275;47;19961;-86
2023/07/17 09:31:04;;;;;;;;;;;;;;;27.55;31.54;100146.22;1087185;54;21021;-89
2023/07/17 09:32:15;;;;;;;;;;;;;;;27.90;30.57;100136.75;1087566;54;19954;-88
2023/07/17 09:39:29;;;;;;;;;;;;;;;28.07;29.89;100139.41;1090968;31;20756;-88
2023/07/17 09:40:33;;;;;;;;;;;;;;;28.29;29.55;100141.28;1087209;47;19946;-88
2023/07/17 09:41:43;;;;;;;;;;;;;;;28.62;29.23;100142.13;1087511;47;19938;-88
2023/07/17 09:42:44;;;;;;;;;;;;;;;28.32;29.33;100146.25;1087402;47;19965;-87
2023/07/17 09:43:53;;;;;;;;;;;;;;;28.10;29.46;100152.63;1087167;47;19939;-87
2023/07/17 09:44:54;;;;;;;;;;;;;;;27.85;29.60;100143.00;1087329;47;19965;-85
2023/07/17 09:46:01;;;;;;;;;;;;;;;28.15;29.12;100149.94;1087120;54;19943;-84
2023/07/17 09:47:05;;;;;;;;;;;;;;;28.24;29.51;100141.25;1086909;47;20025;-83
2023/07/17 09:48:09;;;;;;;;;;;;;;;28.22;29.17;100143.41;1087102;54;19943;-84
2023/07/17 09:49:10;;;;;;;;;;;;;;;27.79;29.58;100138.53;1087808;39;20582;-82
2023/07/17 09:50:15;;;;;;;;;;;;;;;27.64;29.89;100149.34;1087245;54;19942;-83
2023/07/17 09:51:17;;;;;;;;;;;;;;;27.41;30.14;100148.47;1086910;47;19954;-85
2023/07/17 09:52:21;;;;;;;;;;;;;;;27.48;29.99;100151.06;1086859;47;19939;-84
2023/07/17 09:53:22;;;;;;;;;;;;;;;27.71;29.71;100149.97;1086992;47;19939;-85
2023/07/17 09:54:26;;;;;;;;;;;;;;;28.23;29.36;100147.81;1089828;39;20243;-87
2023/07/17 09:55:31;;;;;;;;;;;;;;;28.21;29.30;100155.47;1086958;47;20860;-84
2023/07/17 09:56:35;;;;;;;;;;;;;;;28.64;29.13;100140.75;1086839;47;19939;-83
2023/07/17 09:57:37;;;;;;;;;;;;;;;28.54;29.17;100153.56;1086911;54;19943;-84
2023/07/17 09:58:39;;;;;;;;;;;;;;;27.88;30.09;100155.41;1086965;47;19946;-84
2023/07/17 09:59:43;;;;;;;;;;;;;;;27.91;29.74;100149.41;1086916;47;19939;-83
2023/07/17 10:00:50;;;;;;;;;;;;;;;27.83;29.99;100156.16;1087096;54;19942;-86
2023/07/17 10:01:57;;;;;;;;;;;;;;;28.12;29.42;100160.59;1087070;54;19947;-82
2023/07/17 10:03:04;;;;;;;;;;;;;;;27.78;30.24;100155.28;1087019;47;19939;-86
2023/07/17 10:04:08;;;;;;;;;;;;;;;27.52;30.68;100158.53;1089640;39;20706;-84
2023/07/17 10:05:09;;;;;;;;;;;;;;;27.87;30.66;100142.75;1087078;54;19942;-83
2023/07/17 10:06:13;;;;;;;;;;;;;;;27.69;30.80;100153.00;1086897;47;19938;-85
2023/07/17 10:07:15;;;;;;;;;;;;;;;28.15;30.20;100154.59;1087147;47;19938;-83
2023/07/17 10:08:20;;;;;;;;;;;;;;;28.46;29.93;100155.72;1087126;54;20202;-86
2023/07/17 10:10:24;;;;;;;;;;;;;;;27.76;30.75;100143.72;1086886;47;19939;-85
2023/07/17 10:11:25;;;;;;;;;;;;;;;27.77;30.59;100151.72;1086946;47;19954;-84
2023/07/17 10:12:29;;;;;;;;;;;;;;;27.80;30.46;100153.94;1086868;47;19938;-84
2023/07/17 10:13:30;;;;;;;;;;;;;;;27.76;30.50;100155.53;1086952;47;19969;-84
2023/07/17 10:14:35;;;;;;;;;;;;;;;27.95;30.27;100144.22;1088042;39;20831;-86
2023/07/17 10:15:41;;;;;;;;;;;;;;;28.32;29.88;100152.56;1087070;47;19950;-85
2023/07/17 10:16:45;;;;;;;;;;;;;;;28.43;30.08;100149.91;1087017;47;19938;-83
2023/07/17 10:17:54;;;;;;;;;;;;;;;28.12;29.41;100149.63;1087077;54;19950;-87
2023/07/17 10:19:00;;;;;;;;;;;;;;;28.59;28.55;100139.88;1088801;46;20010;-86
2023/07/17 10:20:03;;;;;;;;;;;;;;;28.77;28.58;100147.75;1087147;47;19950;-84
2023/07/17 10:21:08;;;;;;;;;;;;;;;28.64;28.67;100139.91;1086968;47;19942;-87
2023/07/17 10:22:12;;;;;;;;;;;;;;;29.00;28.60;100150.38;1086917;47;19942;-84
2023/07/17 10:23:25;;;;;;;;;;;;;;;28.92;28.25;100146.19;1087055;54;19998;-84
2023/07/17 10:24:29;;;;;;;;;;;;;;;28.88;27.72;100145.06;1087020;54;20022;-83
2023/07/17 10:25:37;;;;;;;;;;;;;;;28.81;27.74;100141.72;1086840;54;19946;-85
2023/07/17 10:26:38;;;;;;;;;;;;;;;28.70;27.68;100136.13;1087114;47;19976;-86
2023/07/17 10:27:43;;;;;;;;;;;;;;;28.69;27.80;100148.22;1087051;47;20849;-88
2023/07/17 10:28:47;;;;;;;;;;;;;;;28.70;27.82;100143.53;1086958;47;19965;-86
2023/07/17 10:29:50;;;;;;;;;;;;;;;28.76;27.68;100143.34;1088873;39;20701;-85
2023/07/17 10:30:51;;;;;;;;;;;;;;;28.45;28.12;100148.56;1088304;39;20986;-85
2023/07/17 10:33:37;;;;;;;;;;;;;;;29.04;27.32;100133.06;1086632;47;19942;-83
2023/07/17 10:34:51;;;;;;;;;;;;;;;28.77;27.69;100139.50;1086922;54;19966;-84
2023/07/17 10:35:56;;;;;;;;;;;;;;;28.69;28.21;100136.38;1088783;39;20714;-83
2023/07/17 10:36:57;;;;;;;;;;;;;;;28.73;27.69;100143.84;1086962;54;19947;-84
2023/07/17 10:38:10;;;;;;;;;;;;;;;28.85;27.74;100137.34;1086916;54;19938;-84
2023/07/17 10:39:14;;;;;;;;;;;;;;;29.27;27.10;100125.50;1087871;39;20899;-84
2023/07/17 10:40:28;;;;;;;;;;;;;;;29.26;27.16;100134.84;1086839;54;19967;-85
2023/07/17 10:41:29;;;;;;;;;;;;;;;29.26;27.06;100130.16;1086839;47;19943;-86
2023/07/17 10:42:34;;;;;;;;;;;;;;;29.11;27.17;100128.16;1086966;47;19945;-83
2023/07/17 10:43:35;;;;;;;;;;;;;;;28.69;27.75;100139.13;1087133;47;19970;-86
2023/07/17 10:44:41;;;;;;;;;;;;;;;28.76;27.99;100137.84;1087038;47;19943;-87
2023/07/17 10:45:56;;;;;;;;;;;;;;;28.07;28.65;100133.91;1087156;46;19969;-87
2023/07/17 10:47:00;;;;;;;;;;;;;;;28.39;28.91;100135.88;1087042;47;19938;-85
2023/07/17 10:48:03;;;;;;;;;;;;;;;28.61;28.60;100123.94;1086870;47;19943;-87
2023/07/17 10:49:05;;;;;;;;;;;;;;;28.62;28.58;100122.88;1087285;47;19942;-88
2023/07/17 10:50:11;;;;;;;;;;;;;;;28.72;27.96;100125.69;1088461;39;21044;-86
2023/07/17 10:51:15;;;;;;;;;;;;;;;29.16;27.02;100124.59;1087166;47;19949;-87
2023/07/17 10:52:18;;;;;;;;;;;;;;;29.23;26.97;100124.34;1086926;47;19942;-86
2023/07/17 10:53:20;;;;;;;;;;;;;;;29.01;26.87;100119.00;1086840;47;19949;-85
2023/07/17 10:54:24;;;;;;;;;;;;;;;29.06;26.02;100125.38;1086781;47;19939;-86
2023/07/17 10:55:25;;;;;;;;;;;;;;;28.99;26.29;100123.94;1086064;47;19968;-85
2023/07/17 10:56:28;;;;;;;;;;;;;;;28.86;26.63;100122.50;1086512;47;19950;-86
2023/07/17 10:57:29;;;;;;;;;;;;;;;28.64;27.33;100129.75;1086355;47;19938;-86
2023/07/17 10:58:32;;;;;;;;;;;;;;;28.91;27.57;100128.00;1086791;39;20268;-86
2023/07/17 10:59:34;;;;;;;;;;;;;;;28.48;27.87;100125.22;1086652;47;19954;-86
2023/07/17 11:00:37;;;;;;;;;;;;;;;28.62;27.95;100120.13;1086586;46;20872;-87
2023/07/17 11:01:38;;;;;;;;;;;;;;;28.98;27.79;100117.63;1086690;47;20852;-85
2023/07/17 11:02:41;;;;;;;;;;;;;;;28.84;27.72;100125.53;1086786;54;19943;-88
2023/07/17 11:03:43;;;;;;;;;;;;;;;28.61;28.41;100118.44;1086708;47;19939;-86
2023/07/17 11:04:47;;;;;;;;;;;;;;;28.61;28.52;100129.44;1087027;46;20070;-86
2023/07/17 11:05:53;;;;;;;;;;;;;;;28.35;28.37;100129.22;1086969;47;19946;-85
2023/07/17 11:07:07;;;;;;;;;;;;;;;28.25;28.62;100129.13;1087049;54;19942;-87
2023/07/17 11:08:09;;;;;;;;;;;;;;;28.11;29.06;100121.31;1086908;47;19946;-87
2023/07/17 11:09:13;;;;;;;;;;;;;;;28.02;29.37;100122.84;1087009;47;19949;-87
2023/07/17 11:10:14;;;;;;;;;;;;;;;28.39;28.88;100110.28;1086625;54;21300;-86
2023/07/17 11:11:18;;;;;;;;;;;;;;;28.57;28.72;100120.06;1086282;47;20697;-86
2023/07/17 11:12:19;;;;;;;;;;;;;;;28.64;28.42;100120.66;1086950;47;19938;-85
2023/07/17 11:13:20;;;;;;;;;;;;;;;28.40;28.56;100123.78;1087021;47;20260;-85
2023/07/17 11:14:24;;;;;;;;;;;;;;;28.21;28.75;100119.75;1087177;47;19942;-87
2023/07/17 11:15:24;;;;;;;;;;;;;;;28.09;28.72;100117.19;1087014;47;19942;-86
2023/07/17 11:16:28;;;;;;;;;;;;;;;28.07;29.35;100128.41;1087082;46;20975;-87
2023/07/17 11:17:28;;;;;;;;;;;;;;;28.06;28.74;100114.91;1087091;47;19964;-88
2023/07/17 11:18:32;;;;;;;;;;;;;;;27.95;28.78;100112.06;1086945;47;19939;-86
2023/07/17 11:19:32;;;;;;;;;;;;;;;27.95;29.24;100114.00;1087047;46;20927;-88
2023/07/17 11:20:36;;;;;;;;;;;;;;;27.73;29.56;100117.59;1086988;54;19968;-86
2023/07/17 11:21:39;;;;;;;;;;;;;;;27.74;29.49;100112.94;1087527;39;21042;-85
2023/07/17 11:22:40;;;;;;;;;;;;;;;27.82;29.45;100118.00;1087044;47;19942;-86
2023/07/17 11:23:51;;;;;;;;;;;;;;;27.96;29.35;100119.22;1086968;47;21001;-87
2023/07/17 11:24:52;;;;;;;;;;;;;;;28.09;29.15;100117.19;1087988;39;20814;-86
2023/07/17 11:25:55;;;;;;;;;;;;;;;27.93;29.54;100114.25;1086969;46;19942;-86
2023/07/17 11:26:58;;;;;;;;;;;;;;;28.02;29.30;100098.94;1087043;46;19950;-85
2023/07/17 11:28:02;;;;;;;;;;;;;;;27.93;29.57;100103.25;1086951;54;19973;-88
2023/07/17 11:29:03;;;;;;;;;;;;;;;27.78;29.93;100100.34;1087028;47;19939;-85
2023/07/17 11:30:17;;;;;;;;;;;;;;;27.90;29.87;100098.28;1087012;47;19947;-86
2023/07/17 11:31:18;;;;;;;;;;;;;;;27.90;29.96;100112.03;1087057;54;19950;-87
2023/07/17 11:32:22;;;;;;;;;;;;;;;27.75;29.73;100112.69;1086945;47;20849;-86
2023/07/17 11:33:23;;;;;;;;;;;;;;;27.96;29.87;100108.22;1086940;47;20026;-86
2023/07/17 11:34:26;;;;;;;;;;;;;;;27.83;29.83;100108.63;1087039;47;20100;-86
2023/07/17 11:35:37;;;;;;;;;;;;;;;28.02;29.69;100109.13;1087041;54;19950;-86
2023/07/17 11:36:46;;;;;;;;;;;;;;;27.72;29.96;100113.19;1087541;39;20272;-85
2023/07/17 11:37:47;;;;;;;;;;;;;;;27.90;29.81;100105.69;1086919;47;20864;-85
2023/07/17 11:38:50;;;;;;;;;;;;;;;27.84;30.25;100105.66;1087031;47;19943;-85
2023/07/17 11:39:52;;;;;;;;;;;;;;;28.11;29.86;100110.34;1087044;54;19943;-85
2023/07/17 11:40:54;;;;;;;;;;;;;;;28.14;30.16;100107.06;1086947;47;19945;-86
2023/07/17 11:41:58;;;;;;;;;;;;;;;27.88;30.45;100111.44;1086973;47;19938;-86
2023/07/17 11:43:03;;;;;;;;;;;;;;;27.86;30.55;100103.47;1087014;47;20010;-85
2023/07/17 11:44:09;;;;;;;;;;;;;;;27.76;30.73;100108.88;1087923;39;20686;-86
2023/07/17 11:45:10;;;;;;;;;;;;;;;27.87;30.25;100102.38;1088879;39;20796;-88
2023/07/17 11:46:13;;;;;;;;;;;;;;;28.04;30.00;100109.69;1086924;47;19938;-86
2023/07/17 11:47:14;;;;;;;;;;;;;;;27.98;30.02;100105.22;1087077;54;19966;-86
2023/07/17 11:48:18;;;;;;;;;;;;;;;27.92;29.88;100100.78;1087038;47;20754;-88
2023/07/17 11:49:18;;;;;;;;;;;;;;;27.92;29.82;100103.53;1087101;54;20050;-86
2023/07/17 11:50:22;;;;;;;;;;;;;;;27.85;29.72;100103.72;1087100;47;19949;-88
2023/07/17 11:51:24;;;;;;;;;;;;;;;27.67;30.39;100094.75;1086892;47;19967;-85
2023/07/17 11:52:33;;;;;;;;;;;;;;;27.57;30.70;100107.53;1087031;47;19967;-86
2023/07/17 11:53:35;;;;;;;;;;;;;;;27.79;30.35;100091.03;1087043;47;19938;-86
2023/07/17 11:54:43;;;;;;;;;;;;;;;27.69;29.82;100087.09;1086855;54;19943;-87
2023/07/17 11:55:44;;;;;;;;;;;;;;;27.75;29.57;100090.72;1086932;47;19947;-88
2023/07/17 11:56:48;;;;;;;;;;;;;;;27.80;29.69;100088.03;1086929;46;20901;-85
2023/07/17 11:57:50;;;;;;;;;;;;;;;27.86;29.76;100098.00;1086918;46;19942;-86
2023/07/17 11:58:53;;;;;;;;;;;;;;;27.69;30.05;100086.25;1086912;54;19954;-86
2023/07/17 12:00:00;;;;;;;;;;;;;;;27.83;30.17;100098.50;1087404;39;20713;-87
2023/07/17 12:01:01;;;;;;;;;;;;;;;28.04;30.07;100093.22;1086967;54;19967;-86
2023/07/17 12:02:05;;;;;;;;;;;;;;;28.03;30.08;100100.59;1087337;39;20933;-87
2023/07/17 12:03:06;;;;;;;;;;;;;;;28.05;29.95;100100.38;1087421;39;20257;-87
2023/07/17 12:04:19;;;;;;;;;;;;;;;28.00;30.02;100094.81;1086982;54;19942;-86
2023/07/17 12:05:20;;;;;;;;;;;;;;;28.15;29.61;100089.47;1087914;39;20622;-86
2023/07/17 12:06:23;;;;;;;;;;;;;;;28.16;29.39;100091.13;1086953;47;19977;-86
2023/07/17 12:07:27;;;;;;;;;;;;;;;27.78;30.13;100084.69;1086975;47;19956;-85
2023/07/17 12:08:30;;;;;;;;;;;;;;;28.00;29.87;100092.06;1086839;54;19950;-87
2023/07/17 12:09:31;;;;;;;;;;;;;;;28.12;29.80;100089.16;1086863;47;20865;-85
2023/07/17 12:10:35;;;;;;;;;;;;;;;28.26;29.58;100086.81;1086922;47;19949;-88
2023/07/17 12:11:36;;;;;;;;;;;;;;;28.31;29.70;100086.88;1086499;47;21031;-87
2023/07/17 12:12:40;;;;;;;;;;;;;;;28.20;29.44;100091.44;1086858;54;19999;-85
2023/07/17 12:13:40;;;;;;;;;;;;;;;28.16;28.53;100091.13;1086840;47;19954;-85
2023/07/17 12:14:44;;;;;;;;;;;;;;;28.03;28.73;100086.06;1088225;39;21141;-85
2023/07/17 12:15:45;;;;;;;;;;;;;;;28.00;28.50;100081.06;1087749;39;21045;-87
2023/07/17 12:16:48;;;;;;;;;;;;;;;28.00;28.59;100086.56;1086933;54;19943;-85
2023/07/17 12:17:50;;;;;;;;;;;;;;;27.93;28.79;100075.78;1087707;39;20946;-86
2023/07/17 12:18:53;;;;;;;;;;;;;;;28.06;28.86;100071.78;1086986;54;19943;-85
2023/07/17 12:19:54;;;;;;;;;;;;;;;27.80;28.85;100081.72;1091508;39;20213;-87
2023/07/17 12:20:57;;;;;;;;;;;;;;;27.90;28.74;100080.97;1086770;47;19973;-85
2023/07/17 12:21:58;;;;;;;;;;;;;;;28.15;28.59;100072.19;1086940;47;19970;-86
2023/07/17 12:23:05;;;;;;;;;;;;;;;28.01;28.96;100071.75;1086983;54;20698;-84
2023/07/17 12:24:06;;;;;;;;;;;;;;;28.06;29.38;100071.78;1086879;54;20030;-86
2023/07/17 12:25:10;;;;;;;;;;;;;;;28.14;29.17;100071.38;1086870;54;19950;-85
2023/07/17 12:26:10;;;;;;;;;;;;;;;28.20;29.40;100065.91;1086765;47;20042;-85
2023/07/17 12:27:14;;;;;;;;;;;;;;;28.40;28.90;100063.31;1086908;47;20020;-85
2023/07/17 12:28:15;;;;;;;;;;;;;;;28.55;29.04;100065.34;1086987;47;19938;-87
2023/07/17 12:29:21;;;;;;;;;;;;;;;28.58;28.94;100063.97;1089028;39;20594;-86
2023/07/17 12:30:22;;;;;;;;;;;;;;;28.56;28.82;100067.00;1087422;39;20950;-85
2023/07/17 12:31:23;;;;;;;;;;;;;;;28.41;29.16;100075.97;1088866;39;20982;-86
2023/07/17 12:32:26;;;;;;;;;;;;;;;28.44;29.00;100074.59;1086923;46;19943;-85
2023/07/17 12:33:27;;;;;;;;;;;;;;;28.39;28.96;100066.31;1086936;54;19943;-85
2023/07/17 12:34:30;;;;;;;;;;;;;;;28.39;29.25;100061.66;1086915;47;19943;-89
2023/07/17 12:35:31;;;;;;;;;;;;;;;28.39;29.10;100066.31;1086826;47;19963;-85
2023/07/17 12:36:34;;;;;;;;;;;;;;;28.55;29.03;100065.34;1086926;47;19943;-86
2023/07/17 12:37:35;;;;;;;;;;;;;;;28.58;29.25;100059.31;1086887;47;19977;-85
2023/07/17 12:38:41;;;;;;;;;;;;;;;28.61;29.16;100064.28;1086837;47;19948;-87
2023/07/17 12:39:42;;;;;;;;;;;;;;;28.23;29.28;100063.44;1086903;47;19943;-84
2023/07/17 12:40:45;;;;;;;;;;;;;;;28.31;29.26;100062.16;1086754;47;19942;-85
2023/07/17 12:41:46;;;;;;;;;;;;;;;28.35;29.05;100062.44;1086841;47;20808;-85
2023/07/17 12:42:50;;;;;;;;;;;;;;;28.32;28.99;100067.38;1086847;47;19967;-87
2023/07/17 12:43:50;;;;;;;;;;;;;;;28.20;29.29;100063.97;1086884;47;20023;-86
2023/07/17 12:44:55;;;;;;;;;;;;;;;28.34;28.99;100058.84;1086803;47;20016;-83
2023/07/17 12:45:55;;;;;;;;;;;;;;;28.13;28.98;100064.22;1086697;47;20048;-86
2023/07/17 12:46:59;;;;;;;;;;;;;;;28.33;28.80;100054.47;1086851;47;20744;-85
2023/07/17 12:48:00;;;;;;;;;;;;;;;28.32;28.71;100055.56;1086944;47;19954;-87
2023/07/17 12:49:03;;;;;;;;;;;;;;;28.39;28.81;100069.91;1086876;46;19955;-86
2023/07/17 12:50:04;;;;;;;;;;;;;;;28.43;28.75;100057.31;1086790;47;19942;-87
2023/07/17 12:51:08;;;;;;;;;;;;;;;28.46;28.78;100044.94;1086916;54;19954;-86
2023/07/17 12:52:09;;;;;;;;;;;;;;;28.35;29.20;100049.53;1086973;47;19942;-86
2023/07/17 12:53:12;;;;;;;;;;;;;;;28.46;28.89;100059.50;1086904;47;19990;-84
2023/07/17 12:54:16;;;;;;;;;;;;;;;28.51;28.93;100055.16;1086946;46;19942;-84
2023/07/17 12:55:19;;;;;;;;;;;;;;;28.56;28.78;100052.41;1086834;54;20761;-85
2023/07/17 12:56:20;;;;;;;;;;;;;;;28.45;28.97;100054.28;1086829;47;19943;-86
2023/07/17 12:57:23;;;;;;;;;;;;;;;28.55;29.03;100053.50;1086877;54;20674;-85
2023/07/17 12:58:24;;;;;;;;;;;;;;;28.67;29.01;100048.66;1086732;46;19963;-87
2023/07/17 12:59:27;;;;;;;;;;;;;;;28.55;29.13;100048.00;1086865;47;20021;-87
2023/07/17 13:00:28;;;;;;;;;;;;;;;28.40;29.53;100048.72;1086797;54;19943;-89
2023/07/17 13:01:32;;;;;;;;;;;;;;;28.60;29.32;100048.06;1086984;54;19943;-83
2023/07/17 13:02:32;;;;;;;;;;;;;;;28.64;29.07;100050.00;1088279;39;20816;-86
2023/07/17 13:03:36;;;;;;;;;;;;;;;28.66;28.54;100041.50;1086796;47;20026;-86
2023/07/17 13:04:36;;;;;;;;;;;;;;;28.65;28.55;100039.81;1086866;54;19968;-85
2023/07/17 13:05:40;;;;;;;;;;;;;;;28.68;28.58;100042.06;1086874;47;19943;-85
2023/07/17 13:06:41;;;;;;;;;;;;;;;28.60;28.47;100050.81;1086932;54;20711;-84
2023/07/17 13:07:41;;;;;;;;;;;;;;;28.58;28.55;100042.00;1086756;47;19968;-84
2023/07/17 13:08:45;;;;;;;;;;;;;;;28.35;28.90;100045.97;1086852;47;19949;-85
2023/07/17 13:09:48;;;;;;;;;;;;;;;28.55;28.72;100045.25;1086838;47;19950;-86
2023/07/17 13:10:52;;;;;;;;;;;;;;;28.53;29.00;100044.72;1086813;47;20004;-86
2023/07/17 13:11:53;;;;;;;;;;;;;;;28.48;28.75;100042.75;1086760;54;19949;-87
2023/07/17 13:12:56;;;;;;;;;;;;;;;28.45;28.76;100044.09;1086882;54;19943;-85
2023/07/17 13:13:57;;;;;;;;;;;;;;;28.41;28.95;100047.63;1088350;39;20822;-84
2023/07/17 13:15:00;;;;;;;;;;;;;;;28.51;28.91;100047.72;1086895;47;19943;-86
2023/07/17 13:16:01;;;;;;;;;;;;;;;28.42;28.83;100057.53;1086805;54;19943;-83
2023/07/17 13:17:05;;;;;;;;;;;;;;;28.31;29.14;100049.22;1086990;54;19943;-85
2023/07/17 13:18:06;;;;;;;;;;;;;;;28.32;29.12;100050.88;1086823;47;19943;-85
2023/07/17 13:19:09;;;;;;;;;;;;;;;28.33;29.51;100051.72;1086910;47;19943;-84
2023/07/17 13:20:10;;;;;;;;;;;;;;;28.59;29.04;100046.41;1088889;39;20603;-86
2023/07/17 13:21:13;;;;;;;;;;;;;;;28.59;28.70;100044.47;1086855;54;19999;-85
2023/07/17 13:22:14;;;;;;;;;;;;;;;28.42;29.13;100044.66;1086856;47;19943;-88
2023/07/17 13:23:18;;;;;;;;;;;;;;;28.58;28.91;100053.81;1086921;54;19942;-85
2023/07/17 13:24:20;;;;;;;;;;;;;;;28.32;28.96;100050.06;1086874;54;19946;-85
2023/07/17 13:25:26;;;;;;;;;;;;;;;28.54;28.86;100047.19;1086894;47;19967;-86
2023/07/17 13:26:28;;;;;;;;;;;;;;;28.43;28.84;100051.81;1086681;54;19943;-85
2023/07/17 13:27:31;;;;;;;;;;;;;;;28.33;29.00;100048.97;1086862;47;19963;-85
2023/07/17 13:28:33;;;;;;;;;;;;;;;28.35;28.84;100049.53;1086866;54;19968;-85
2023/07/17 13:29:36;;;;;;;;;;;;;;;27.98;29.42;100033.81;1086827;47;19994;-84
2023/07/17 13:30:37;;;;;;;;;;;;;;;28.14;29.25;100038.38;1086965;47;19949;-85
2023/07/17 13:31:40;;;;;;;;;;;;;;;28.01;29.20;100033.28;1086906;47;20006;-82
2023/07/17 13:32:41;;;;;;;;;;;;;;;27.82;29.71;100041.09;1086960;47;19985;-85
2023/07/17 13:33:44;;;;;;;;;;;;;;;27.77;29.53;100039.13;1087062;54;19943;-86
2023/07/17 13:34:45;;;;;;;;;;;;;;;27.71;29.77;100041.00;1087232;54;19966;-86
2023/07/17 13:35:49;;;;;;;;;;;;;;;28.03;29.58;100039.34;1086964;46;19938;-84
2023/07/17 13:36:50;;;;;;;;;;;;;;;27.84;29.43;100042.50;1086960;47;19943;-85
2023/07/17 13:37:53;;;;;;;;;;;;;;;28.14;29.38;100043.03;1087076;54;19949;-86
2023/07/17 13:38:54;;;;;;;;;;;;;;;28.26;29.16;100046.44;1087367;54;19966;-86
2023/07/17 13:39:57;;;;;;;;;;;;;;;28.32;29.15;100047.31;1087339;54;19967;-85
2023/07/17 13:41:00;;;;;;;;;;;;;;;28.40;29.26;100041.31;1086910;47;19963;-85
2023/07/17 13:42:04;;;;;;;;;;;;;;;28.11;29.16;100049.91;1087028;54;19990;-86
2023/07/17 13:43:05;;;;;;;;;;;;;;;28.01;29.13;100028.63;1087769;39;20601;-85
2023/07/17 13:44:09;;;;;;;;;;;;;;;27.92;29.42;100040.34;1087318;54;19950;-85
2023/07/17 13:45:09;;;;;;;;;;;;;;;27.84;29.50;100044.38;1087056;47;19942;-84
2023/07/17 13:46:13;;;;;;;;;;;;;;;27.90;29.37;100031.53;1087887;39;20944;-84
2023/07/17 13:47:13;;;;;;;;;;;;;;;27.89;29.48;100035.38;1086976;47;21065;-85
2023/07/17 13:48:18;;;;;;;;;;;;;;;27.69;29.70;100032.19;1087025;54;19966;-86
2023/07/17 13:49:19;;;;;;;;;;;;;;;27.87;29.89;100030.16;1087225;54;20326;-83
2023/07/17 13:50:22;;;;;;;;;;;;;;;27.84;29.47;100006.78;1089285;39;20597;-86
2023/07/17 13:51:23;;;;;;;;;;;;;;;27.99;29.63;100016.22;1086906;47;20010;-86
2023/07/17 13:52:27;;;;;;;;;;;;;;;28.08;29.79;100030.34;1087051;47;19942;-85
2023/07/17 13:53:27;;;;;;;;;;;;;;;28.32;29.48;100044.56;1087118;47;19975;-85
2023/07/17 13:54:31;;;;;;;;;;;;;;;28.25;29.25;100043.94;1088096;39;20586;-84
2023/07/17 13:55:32;;;;;;;;;;;;;;;28.26;28.76;100040.94;1086959;54;20015;-84
2023/07/17 13:56:38;;;;;;;;;;;;;;;28.38;28.87;100038.00;1087167;54;19950;-85
2023/07/17 13:57:39;;;;;;;;;;;;;;;28.46;28.83;100048.50;1086921;47;19966;-86
2023/07/17 13:58:42;;;;;;;;;;;;;;;28.13;28.97;100042.22;1087076;54;19967;-88
2023/07/17 13:59:43;;;;;;;;;;;;;;;28.06;28.74;100041.56;1086998;47;19943;-85
2023/07/17 14:00:46;;;;;;;;;;;;;;;28.12;28.81;100037.81;1087132;54;19998;-85
2023/07/17 14:01:47;;;;;;;;;;;;;;;28.17;28.64;100040.59;1087359;54;19942;-85
2023/07/17 14:02:50;;;;;;;;;;;;;;;28.10;29.13;100029.00;1092606;31;20598;-86
2023/07/17 14:03:51;;;;;;;;;;;;;;;28.24;29.05;100025.81;1087076;47;20311;-85
2023/07/17 14:04:55;;;;;;;;;;;;;;;28.32;29.34;100041.81;1086911;47;19963;-84
2023/07/17 14:05:55;;;;;;;;;;;;;;;28.25;29.11;100027.44;1089001;39;20275;-85
2023/07/17 14:06:59;;;;;;;;;;;;;;;28.15;29.10;100025.47;1086976;47;19942;-86
2023/07/17 14:08:00;;;;;;;;;;;;;;;28.28;28.95;100032.44;1086836;47;19942;-85
2023/07/17 14:09:04;;;;;;;;;;;;;;;28.30;28.91;100035.75;1086996;54;20661;-86
2023/07/17 14:10:05;;;;;;;;;;;;;;;28.21;28.89;100032.66;1089979;39;21140;-86
2023/07/17 14:11:09;;;;;;;;;;;;;;;28.20;28.89;100039.22;1087026;47;20065;-86
2023/07/17 14:12:12;;;;;;;;;;;;;;;28.27;28.72;100030.78;1086895;54;19942;-83
2023/07/17 14:13:15;;;;;;;;;;;;;;;28.32;28.74;100039.06;1087244;54;19942;-86
2023/07/17 14:14:16;;;;;;;;;;;;;;;28.26;28.88;100029.13;1087252;54;19942;-86
2023/07/17 14:15:19;;;;;;;;;;;;;;;28.12;29.19;100029.56;1087228;54;19942;-86
2023/07/17 14:16:20;;;;;;;;;;;;;;;28.12;29.36;100029.56;1087180;54;19943;-85
2023/07/17 14:17:24;;;;;;;;;;;;;;;27.99;29.63;100018.97;1086914;47;19968;-85
2023/07/17 14:18:24;;;;;;;;;;;;;;;28.17;29.07;100032.34;1087150;54;19942;-86
2023/07/17 14:19:30;;;;;;;;;;;;;;;28.49;28.86;100027.91;1087223;47;19938;-84